sensor_id;sensor_type;location;lat;lon;timestamp;P1;durP1;ratioP1;P2;durP2;ratioP2
69280;SDS011;56392;51.082;17.080;2024-02-15T00:04:20;23.30;;;10.32;;
69280;SDS011;56392;51.082;17.080;2024-02-15T00:09:44;23.43;;;9.70;;
69280;SDS011;56392;51.082;17.080;2024-02-15T00:15:07;20.15;;;9.43;;
69280;SDS011;56392;51.082;17.080;2024-02-15T00:20:33;21.52;;;10.23;;
69280;SDS011;56392;51.082;17.080;2024-02-15T00:25:56;22.43;;;10.77;;
69280;SDS011;56392;51.082;17.080;2024-02-15T00:31:19;29.37;;;11.43;;
69280;SDS011;56392;51.082;17.080;2024-02-15T00:36:44;22.75;;;10.38;;
69280;SDS011;56392;51.082;17.080;2024-02-15T00:42:07;21.77;;;10.73;;
69280;SDS011;56392;51.082;17.080;2024-02-15T00:47:30;22.70;;;10.50;;
69280;SDS011;56392;51.082;17.080;2024-02-15T00:52:55;21.77;;;10.40;;
69280;SDS011;56392;51.082;17.080;2024-02-15T00:58:18;25.63;;;11.23;;
69280;SDS011;56392;51.082;17.080;2024-02-15T01:03:43;21.93;;;10.33;;
69280;SDS011;56392;51.082;17.080;2024-02-15T01:09:07;24.13;;;10.50;;
69280;SDS011;56392;51.082;17.080;2024-02-15T01:14:31;23.25;;;11.18;;
69280;SDS011;56392;51.082;17.080;2024-02-15T01:19:54;22.83;;;11.10;;
69280;SDS011;56392;51.082;17.080;2024-02-15T01:25:18;21.90;;;10.03;;
69280;SDS011;56392;51.082;17.080;2024-02-15T01:30:42;24.13;;;10.15;;
69280;SDS011;56392;51.082;17.080;2024-02-15T01:36:08;20.85;;;9.55;;
69280;SDS011;56392;51.082;17.080;2024-02-15T01:41:32;20.80;;;9.87;;
69280;SDS011;56392;51.082;17.080;2024-02-15T01:46:55;22.90;;;9.98;;
69280;SDS011;56392;51.082;17.080;2024-02-15T01:52:18;21.25;;;9.43;;
69280;SDS011;56392;51.082;17.080;2024-02-15T01:57:44;21.70;;;8.80;;
69280;SDS011;56392;51.082;17.080;2024-02-15T02:03:08;20.70;;;8.43;;
69280;SDS011;56392;51.082;17.080;2024-02-15T02:08:33;20.17;;;9.20;;
69280;SDS011;56392;51.082;17.080;2024-02-15T02:13:58;20.47;;;9.63;;
69280;SDS011;56392;51.082;17.080;2024-02-15T02:19:21;22.73;;;9.27;;
69280;SDS011;56392;51.082;17.080;2024-02-15T02:24:53;20.80;;;9.05;;
69280;SDS011;56392;51.082;17.080;2024-02-15T02:30:20;21.50;;;9.70;;
69280;SDS011;56392;51.082;17.080;2024-02-15T02:35:44;20.47;;;9.40;;
69280;SDS011;56392;51.082;17.080;2024-02-15T02:41:09;21.08;;;8.73;;
69280;SDS011;56392;51.082;17.080;2024-02-15T02:46:32;17.83;;;8.77;;
69280;SDS011;56392;51.082;17.080;2024-02-15T02:51:55;18.83;;;8.67;;
69280;SDS011;56392;51.082;17.080;2024-02-15T02:57:20;20.92;;;9.45;;
69280;SDS011;56392;51.082;17.080;2024-02-15T03:02:43;18.73;;;9.35;;
69280;SDS011;56392;51.082;17.080;2024-02-15T03:08:08;19.70;;;9.43;;
69280;SDS011;56392;51.082;17.080;2024-02-15T03:13:33;18.53;;;9.27;;
69280;SDS011;56392;51.082;17.080;2024-02-15T03:18:57;18.48;;;8.95;;
69280;SDS011;56392;51.082;17.080;2024-02-15T03:24:20;18.15;;;7.97;;
69280;SDS011;56392;51.082;17.080;2024-02-15T03:29:45;18.20;;;7.80;;
69280;SDS011;56392;51.082;17.080;2024-02-15T03:35:08;15.98;;;8.27;;
69280;SDS011;56392;51.082;17.080;2024-02-15T03:40:35;15.90;;;8.15;;
69280;SDS011;56392;51.082;17.080;2024-02-15T03:46:03;18.73;;;8.77;;
69280;SDS011;56392;51.082;17.080;2024-02-15T03:51:26;17.92;;;8.70;;
69280;SDS011;56392;51.082;17.080;2024-02-15T03:56:51;17.98;;;8.88;;
69280;SDS011;56392;51.082;17.080;2024-02-15T04:02:15;17.63;;;9.17;;
69280;SDS011;56392;51.082;17.080;2024-02-15T04:07:39;22.57;;;9.33;;
69280;SDS011;56392;51.082;17.080;2024-02-15T04:13:03;18.65;;;9.13;;
69280;SDS011;56392;51.082;17.080;2024-02-15T04:18:28;19.90;;;9.18;;
69280;SDS011;56392;51.082;17.080;2024-02-15T04:23:53;20.60;;;8.97;;
69280;SDS011;56392;51.082;17.080;2024-02-15T04:29:17;18.35;;;8.23;;
69280;SDS011;56392;51.082;17.080;2024-02-15T04:34:43;17.73;;;8.50;;
69280;SDS011;56392;51.082;17.080;2024-02-15T04:40:08;14.73;;;8.03;;
69280;SDS011;56392;51.082;17.080;2024-02-15T04:45:32;16.08;;;7.20;;
69280;SDS011;56392;51.082;17.080;2024-02-15T04:50:58;15.73;;;7.43;;
69280;SDS011;56392;51.082;17.080;2024-02-15T04:56:21;13.67;;;7.30;;
69280;SDS011;56392;51.082;17.080;2024-02-15T05:01:44;14.23;;;7.70;;
69280;SDS011;56392;51.082;17.080;2024-02-15T05:07:09;16.58;;;8.05;;
69280;SDS011;56392;51.082;17.080;2024-02-15T05:12:36;15.48;;;7.80;;
69280;SDS011;56392;51.082;17.080;2024-02-15T05:18:01;14.80;;;7.50;;
69280;SDS011;56392;51.082;17.080;2024-02-15T05:23:27;15.45;;;7.63;;
69280;SDS011;56392;51.082;17.080;2024-02-15T05:28:50;15.60;;;7.68;;
69280;SDS011;56392;51.082;17.080;2024-02-15T05:34:13;16.23;;;7.40;;
69280;SDS011;56392;51.082;17.080;2024-02-15T05:39:37;17.00;;;8.63;;
69280;SDS011;56392;51.082;17.080;2024-02-15T05:45:14;28.50;;;15.10;;
69280;SDS011;56392;51.082;17.080;2024-02-15T05:50:54;38.33;;;21.27;;
69280;SDS011;56392;51.082;17.080;2024-02-15T05:56:19;29.43;;;16.53;;
69280;SDS011;56392;51.082;17.080;2024-02-15T06:01:43;26.13;;;13.75;;
69280;SDS011;56392;51.082;17.080;2024-02-15T06:07:06;27.13;;;16.45;;
69280;SDS011;56392;51.082;17.080;2024-02-15T06:12:32;32.33;;;19.60;;
69280;SDS011;56392;51.082;17.080;2024-02-15T06:17:57;45.70;;;25.60;;
69280;SDS011;56392;51.082;17.080;2024-02-15T06:23:20;39.88;;;22.58;;
69280;SDS011;56392;51.082;17.080;2024-02-15T06:28:45;24.40;;;14.57;;
69280;SDS011;56392;51.082;17.080;2024-02-15T06:34:25;18.70;;;10.23;;
69280;SDS011;56392;51.082;17.080;2024-02-15T06:40:06;18.02;;;9.38;;
69280;SDS011;56392;51.082;17.080;2024-02-15T06:45:31;22.50;;;13.27;;
69280;SDS011;56392;51.082;17.080;2024-02-15T06:50:57;25.50;;;12.00;;
69280;SDS011;56392;51.082;17.080;2024-02-15T06:56:21;24.75;;;13.38;;
69280;SDS011;56392;51.082;17.080;2024-02-15T07:01:45;26.95;;;12.68;;
69280;SDS011;56392;51.082;17.080;2024-02-15T07:07:09;19.03;;;10.27;;
69280;SDS011;56392;51.082;17.080;2024-02-15T07:12:33;22.25;;;10.70;;
69280;SDS011;56392;51.082;17.080;2024-02-15T07:17:57;20.23;;;9.20;;
69280;SDS011;56392;51.082;17.080;2024-02-15T07:23:20;17.77;;;8.80;;
69280;SDS011;56392;51.082;17.080;2024-02-15T07:28:44;15.18;;;7.70;;
69280;SDS011;56392;51.082;17.080;2024-02-15T07:34:09;14.65;;;7.60;;
69280;SDS011;56392;51.082;17.080;2024-02-15T07:39:33;15.80;;;7.30;;
69280;SDS011;56392;51.082;17.080;2024-02-15T07:44:57;17.83;;;7.27;;
69280;SDS011;56392;51.082;17.080;2024-02-15T07:50:22;17.00;;;8.40;;
69280;SDS011;56392;51.082;17.080;2024-02-15T07:55:45;15.88;;;7.70;;
69280;SDS011;56392;51.082;17.080;2024-02-15T08:01:08;15.70;;;7.30;;
69280;SDS011;56392;51.082;17.080;2024-02-15T08:06:33;14.70;;;6.93;;
69280;SDS011;56392;51.082;17.080;2024-02-15T08:11:58;14.45;;;6.55;;
69280;SDS011;56392;51.082;17.080;2024-02-15T08:17:23;16.53;;;8.30;;
69280;SDS011;56392;51.082;17.080;2024-02-15T08:22:48;19.77;;;8.15;;
69280;SDS011;56392;51.082;17.080;2024-02-15T08:28:11;15.05;;;7.43;;
69280;SDS011;56392;51.082;17.080;2024-02-15T08:33:35;19.30;;;8.13;;
69280;SDS011;56392;51.082;17.080;2024-02-15T08:39:01;15.13;;;7.63;;
69280;SDS011;56392;51.082;17.080;2024-02-15T08:44:26;17.00;;;7.88;;
69280;SDS011;56392;51.082;17.080;2024-02-15T08:49:49;15.05;;;8.57;;
69280;SDS011;56392;51.082;17.080;2024-02-15T08:55:14;16.73;;;7.90;;
69280;SDS011;56392;51.082;17.080;2024-02-15T09:00:38;15.20;;;8.05;;
69280;SDS011;56392;51.082;17.080;2024-02-15T09:06:06;15.93;;;8.00;;
69280;SDS011;56392;51.082;17.080;2024-02-15T09:11:30;14.13;;;6.93;;
69280;SDS011;56392;51.082;17.080;2024-02-15T09:16:53;15.60;;;7.80;;
69280;SDS011;56392;51.082;17.080;2024-02-15T09:22:16;13.43;;;6.88;;
69280;SDS011;56392;51.082;17.080;2024-02-15T09:27:42;13.40;;;7.33;;
69280;SDS011;56392;51.082;17.080;2024-02-15T09:33:05;14.47;;;6.90;;
69280;SDS011;56392;51.082;17.080;2024-02-15T09:38:29;13.27;;;7.00;;
69280;SDS011;56392;51.082;17.080;2024-02-15T09:43:54;14.60;;;6.97;;
69280;SDS011;56392;51.082;17.080;2024-02-15T09:49:17;14.80;;;7.57;;
69280;SDS011;56392;51.082;17.080;2024-02-15T09:54:42;15.60;;;7.22;;
69280;SDS011;56392;51.082;17.080;2024-02-15T10:00:08;13.65;;;6.22;;
69280;SDS011;56392;51.082;17.080;2024-02-15T10:05:34;12.73;;;5.70;;
69280;SDS011;56392;51.082;17.080;2024-02-15T10:11:06;12.48;;;5.50;;
69280;SDS011;56392;51.082;17.080;2024-02-15T10:16:32;13.55;;;5.88;;
69280;SDS011;56392;51.082;17.080;2024-02-15T10:22:04;15.03;;;5.57;;
69280;SDS011;56392;51.082;17.080;2024-02-15T10:27:29;13.13;;;5.83;;
69280;SDS011;56392;51.082;17.080;2024-02-15T10:33:00;15.98;;;6.38;;
69280;SDS011;56392;51.082;17.080;2024-02-15T10:38:23;12.65;;;5.35;;
69280;SDS011;56392;51.082;17.080;2024-02-15T10:43:48;15.27;;;5.90;;
69280;SDS011;56392;51.082;17.080;2024-02-15T10:49:13;12.52;;;5.53;;
69280;SDS011;56392;51.082;17.080;2024-02-15T10:54:43;15.55;;;5.97;;
69280;SDS011;56392;51.082;17.080;2024-02-15T11:00:10;15.23;;;5.80;;
69280;SDS011;56392;51.082;17.080;2024-02-15T11:05:43;12.60;;;5.47;;
69280;SDS011;56392;51.082;17.080;2024-02-15T11:11:07;11.32;;;5.10;;
69280;SDS011;56392;51.082;17.080;2024-02-15T11:16:39;13.27;;;5.03;;
69280;SDS011;56392;51.082;17.080;2024-02-15T11:22:07;11.07;;;4.67;;
69280;SDS011;56392;51.082;17.080;2024-02-15T11:27:32;13.05;;;4.82;;
69280;SDS011;56392;51.082;17.080;2024-02-15T11:32:56;15.82;;;4.97;;
69280;SDS011;56392;51.082;17.080;2024-02-15T11:38:28;10.80;;;3.90;;
69280;SDS011;56392;51.082;17.080;2024-02-15T11:43:52;11.45;;;4.00;;
69280;SDS011;56392;51.082;17.080;2024-02-15T11:49:22;10.32;;;3.17;;
69280;SDS011;56392;51.082;17.080;2024-02-15T11:54:47;7.17;;;2.67;;
69280;SDS011;56392;51.082;17.080;2024-02-15T12:00:10;7.07;;;2.35;;
69280;SDS011;56392;51.082;17.080;2024-02-15T12:05:56;7.65;;;2.63;;
69280;SDS011;56392;51.082;17.080;2024-02-15T12:11:38;6.73;;;1.80;;
69280;SDS011;56392;51.082;17.080;2024-02-15T12:17:33;8.03;;;2.20;;
69280;SDS011;56392;51.082;17.080;2024-02-15T12:23:16;6.72;;;2.05;;
69280;SDS011;56392;51.082;17.080;2024-02-15T12:28:42;6.50;;;2.00;;
69280;SDS011;56392;51.082;17.080;2024-02-15T12:34:07;5.73;;;1.67;;
69280;SDS011;56392;51.082;17.080;2024-02-15T12:39:33;6.28;;;1.40;;
69280;SDS011;56392;51.082;17.080;2024-02-15T12:44:57;6.03;;;1.38;;
69280;SDS011;56392;51.082;17.080;2024-02-15T12:50:22;6.30;;;1.30;;
69280;SDS011;56392;51.082;17.080;2024-02-15T12:55:51;6.82;;;1.73;;
69280;SDS011;56392;51.082;17.080;2024-02-15T13:01:17;7.85;;;2.55;;
69280;SDS011;56392;51.082;17.080;2024-02-15T13:06:42;10.10;;;2.40;;
69280;SDS011;56392;51.082;17.080;2024-02-15T13:12:06;11.03;;;2.33;;
69280;SDS011;56392;51.082;17.080;2024-02-15T13:17:31;8.02;;;2.80;;
69280;SDS011;56392;51.082;17.080;2024-02-15T13:22:58;9.48;;;3.00;;
69280;SDS011;56392;51.082;17.080;2024-02-15T13:28:24;10.73;;;4.00;;
69280;SDS011;56392;51.082;17.080;2024-02-15T13:33:49;13.50;;;4.60;;
69280;SDS011;56392;51.082;17.080;2024-02-15T13:39:12;11.43;;;4.40;;
69280;SDS011;56392;51.082;17.080;2024-02-15T13:44:37;14.50;;;4.90;;
69280;SDS011;56392;51.082;17.080;2024-02-15T13:50:02;12.20;;;4.88;;
69280;SDS011;56392;51.082;17.080;2024-02-15T13:55:26;10.00;;;4.03;;
69280;SDS011;56392;51.082;17.080;2024-02-15T14:00:50;10.13;;;4.67;;
69280;SDS011;56392;51.082;17.080;2024-02-15T14:06:15;10.83;;;4.23;;
69280;SDS011;56392;51.082;17.080;2024-02-15T14:11:40;10.52;;;4.25;;
69280;SDS011;56392;51.082;17.080;2024-02-15T14:17:04;11.93;;;5.35;;
69280;SDS011;56392;51.082;17.080;2024-02-15T14:22:30;10.70;;;4.30;;
69280;SDS011;56392;51.082;17.080;2024-02-15T14:27:55;11.10;;;4.72;;
69280;SDS011;56392;51.082;17.080;2024-02-15T14:33:19;11.75;;;5.43;;
69280;SDS011;56392;51.082;17.080;2024-02-15T14:38:45;10.10;;;4.00;;
69280;SDS011;56392;51.082;17.080;2024-02-15T14:44:09;10.38;;;4.50;;
69280;SDS011;56392;51.082;17.080;2024-02-15T14:49:35;9.98;;;3.65;;
69280;SDS011;56392;51.082;17.080;2024-02-15T14:54:59;8.67;;;3.70;;
69280;SDS011;56392;51.082;17.080;2024-02-15T15:00:26;8.93;;;3.70;;
69280;SDS011;56392;51.082;17.080;2024-02-15T15:05:49;9.43;;;3.75;;
69280;SDS011;56392;51.082;17.080;2024-02-15T15:11:31;10.25;;;4.00;;
69280;SDS011;56392;51.082;17.080;2024-02-15T15:17:19;10.97;;;4.33;;
69280;SDS011;56392;51.082;17.080;2024-02-15T15:22:48;11.65;;;5.15;;
69280;SDS011;56392;51.082;17.080;2024-02-15T15:28:15;12.85;;;5.20;;
69280;SDS011;56392;51.082;17.080;2024-02-15T15:33:39;10.60;;;4.80;;
69280;SDS011;56392;51.082;17.080;2024-02-15T15:39:03;12.98;;;5.10;;
69280;SDS011;56392;51.082;17.080;2024-02-15T15:44:32;10.32;;;4.38;;
69280;SDS011;56392;51.082;17.080;2024-02-15T15:49:56;15.30;;;5.80;;
69280;SDS011;56392;51.082;17.080;2024-02-15T15:55:23;14.27;;;5.53;;
69280;SDS011;56392;51.082;17.080;2024-02-15T16:00:53;12.75;;;6.18;;
69280;SDS011;56392;51.082;17.080;2024-02-15T16:06:16;14.40;;;6.22;;
69280;SDS011;56392;51.082;17.080;2024-02-15T16:11:40;16.47;;;5.93;;
69280;SDS011;56392;51.082;17.080;2024-02-15T16:17:05;15.70;;;6.57;;
69280;SDS011;56392;51.082;17.080;2024-02-15T16:22:28;15.95;;;6.28;;
69280;SDS011;56392;51.082;17.080;2024-02-15T16:27:52;15.20;;;5.77;;
69280;SDS011;56392;51.082;17.080;2024-02-15T16:33:20;15.98;;;5.57;;
69280;SDS011;56392;51.082;17.080;2024-02-15T16:38:43;15.80;;;6.60;;
69280;SDS011;56392;51.082;17.080;2024-02-15T16:44:07;14.53;;;6.27;;
69280;SDS011;56392;51.082;17.080;2024-02-15T16:49:33;15.53;;;6.00;;
69280;SDS011;56392;51.082;17.080;2024-02-15T16:54:59;13.60;;;6.05;;
69280;SDS011;56392;51.082;17.080;2024-02-15T17:00:22;14.23;;;6.38;;
69280;SDS011;56392;51.082;17.080;2024-02-15T17:05:50;19.53;;;7.90;;
69280;SDS011;56392;51.082;17.080;2024-02-15T17:11:15;17.80;;;8.23;;
69280;SDS011;56392;51.082;17.080;2024-02-15T17:16:39;18.92;;;9.52;;
69280;SDS011;56392;51.082;17.080;2024-02-15T17:22:05;24.17;;;10.63;;
69280;SDS011;56392;51.082;17.080;2024-02-15T17:27:28;23.02;;;10.50;;
69280;SDS011;56392;51.082;17.080;2024-02-15T17:32:52;23.30;;;10.80;;
69280;SDS011;56392;51.082;17.080;2024-02-15T17:38:17;24.33;;;12.07;;
69280;SDS011;56392;51.082;17.080;2024-02-15T17:43:40;24.77;;;13.13;;
69280;SDS011;56392;51.082;17.080;2024-02-15T17:49:05;29.88;;;14.55;;
69280;SDS011;56392;51.082;17.080;2024-02-15T17:54:33;29.00;;;14.20;;
69280;SDS011;56392;51.082;17.080;2024-02-15T17:59:56;30.47;;;15.13;;
69280;SDS011;56392;51.082;17.080;2024-02-15T18:05:25;30.30;;;15.35;;
69280;SDS011;56392;51.082;17.080;2024-02-15T18:10:50;33.63;;;14.55;;
69280;SDS011;56392;51.082;17.080;2024-02-15T18:16:37;33.37;;;15.20;;
69280;SDS011;56392;51.082;17.080;2024-02-15T18:22:02;30.92;;;14.93;;
69280;SDS011;56392;51.082;17.080;2024-02-15T18:27:28;34.25;;;15.85;;
69280;SDS011;56392;51.082;17.080;2024-02-15T18:32:51;38.77;;;18.20;;
69280;SDS011;56392;51.082;17.080;2024-02-15T18:38:15;42.17;;;17.87;;
69280;SDS011;56392;51.082;17.080;2024-02-15T18:43:40;38.50;;;17.15;;
69280;SDS011;56392;51.082;17.080;2024-02-15T18:49:08;36.80;;;18.20;;
69280;SDS011;56392;51.082;17.080;2024-02-15T18:54:31;42.47;;;20.27;;
69280;SDS011;56392;51.082;17.080;2024-02-15T18:59:56;45.20;;;19.35;;
69280;SDS011;56392;51.082;17.080;2024-02-15T19:05:21;37.60;;;16.90;;
69280;SDS011;56392;51.082;17.080;2024-02-15T19:10:47;37.53;;;15.87;;
69280;SDS011;56392;51.082;17.080;2024-02-15T19:16:11;31.60;;;14.02;;
69280;SDS011;56392;51.082;17.080;2024-02-15T19:21:41;27.80;;;13.52;;
69280;SDS011;56392;51.082;17.080;2024-02-15T19:27:06;33.40;;;13.97;;
69280;SDS011;56392;51.082;17.080;2024-02-15T19:32:32;37.40;;;14.13;;
69280;SDS011;56392;51.082;17.080;2024-02-15T19:37:56;26.65;;;12.70;;
69280;SDS011;56392;51.082;17.080;2024-02-15T19:43:19;27.88;;;13.85;;
69280;SDS011;56392;51.082;17.080;2024-02-15T19:48:43;31.37;;;13.97;;
69280;SDS011;56392;51.082;17.080;2024-02-15T19:54:10;34.17;;;15.93;;
69280;SDS011;56392;51.082;17.080;2024-02-15T19:59:33;32.03;;;14.98;;
69280;SDS011;56392;51.082;17.080;2024-02-15T20:05:03;30.67;;;13.73;;
69280;SDS011;56392;51.082;17.080;2024-02-15T20:10:27;32.58;;;15.50;;
69280;SDS011;56392;51.082;17.080;2024-02-15T20:15:51;42.50;;;18.02;;
69280;SDS011;56392;51.082;17.080;2024-02-15T20:21:22;39.27;;;17.03;;
69280;SDS011;56392;51.082;17.080;2024-02-15T20:26:47;34.27;;;16.73;;
69280;SDS011;56392;51.082;17.080;2024-02-15T20:32:13;33.65;;;15.50;;
69280;SDS011;56392;51.082;17.080;2024-02-15T20:37:42;37.65;;;16.15;;
69280;SDS011;56392;51.082;17.080;2024-02-15T20:43:06;39.77;;;16.73;;
69280;SDS011;56392;51.082;17.080;2024-02-15T20:48:30;43.20;;;17.23;;
69280;SDS011;56392;51.082;17.080;2024-02-15T20:53:56;38.17;;;16.30;;
69280;SDS011;56392;51.082;17.080;2024-02-15T20:59:20;37.47;;;15.00;;
69280;SDS011;56392;51.082;17.080;2024-02-15T21:04:46;36.83;;;16.33;;
69280;SDS011;56392;51.082;17.080;2024-02-15T21:10:10;35.45;;;13.43;;
69280;SDS011;56392;51.082;17.080;2024-02-15T21:15:36;32.87;;;13.13;;
69280;SDS011;56392;51.082;17.080;2024-02-15T21:21:01;34.97;;;13.37;;
69280;SDS011;56392;51.082;17.080;2024-02-15T21:26:29;32.47;;;13.65;;
69280;SDS011;56392;51.082;17.080;2024-02-15T21:31:53;30.88;;;13.60;;
69280;SDS011;56392;51.082;17.080;2024-02-15T21:37:16;39.97;;;17.77;;
69280;SDS011;56392;51.082;17.080;2024-02-15T21:42:47;34.65;;;16.55;;
69280;SDS011;56392;51.082;17.080;2024-02-15T21:48:10;36.53;;;15.10;;
69280;SDS011;56392;51.082;17.080;2024-02-15T21:53:33;28.60;;;12.87;;
69280;SDS011;56392;51.082;17.080;2024-02-15T21:59:01;28.35;;;10.98;;
69280;SDS011;56392;51.082;17.080;2024-02-15T22:04:25;24.75;;;10.40;;
69280;SDS011;56392;51.082;17.080;2024-02-15T22:09:48;21.67;;;9.93;;
69280;SDS011;56392;51.082;17.080;2024-02-15T22:15:15;24.33;;;9.70;;
69280;SDS011;56392;51.082;17.080;2024-02-15T22:20:39;22.88;;;9.30;;
69280;SDS011;56392;51.082;17.080;2024-02-15T22:26:13;18.70;;;8.85;;
69280;SDS011;56392;51.082;17.080;2024-02-15T22:31:38;18.77;;;7.77;;
69280;SDS011;56392;51.082;17.080;2024-02-15T22:37:02;17.60;;;7.57;;
69280;SDS011;56392;51.082;17.080;2024-02-15T22:42:27;19.38;;;8.00;;
69280;SDS011;56392;51.082;17.080;2024-02-15T22:47:52;19.80;;;7.53;;
69280;SDS011;56392;51.082;17.080;2024-02-15T22:53:15;19.45;;;8.20;;
69280;SDS011;56392;51.082;17.080;2024-02-15T22:58:40;23.55;;;8.48;;
69280;SDS011;56392;51.082;17.080;2024-02-15T23:04:06;19.03;;;7.30;;
69280;SDS011;56392;51.082;17.080;2024-02-15T23:09:29;19.67;;;7.83;;
69280;SDS011;56392;51.082;17.080;2024-02-15T23:14:52;21.58;;;8.15;;
69280;SDS011;56392;51.082;17.080;2024-02-15T23:20:18;20.23;;;8.48;;
69280;SDS011;56392;51.082;17.080;2024-02-15T23:25:43;21.50;;;9.13;;
69280;SDS011;56392;51.082;17.080;2024-02-15T23:31:06;28.45;;;11.30;;
69280;SDS011;56392;51.082;17.080;2024-02-15T23:36:31;27.55;;;12.05;;
69280;SDS011;56392;51.082;17.080;2024-02-15T23:42:12;31.40;;;12.57;;
69280;SDS011;56392;51.082;17.080;2024-02-15T23:47:37;30.73;;;13.80;;
69280;SDS011;56392;51.082;17.080;2024-02-15T23:53:04;30.30;;;13.00;;
69280;SDS011;56392;51.082;17.080;2024-02-15T23:58:27;31.47;;;12.60;;
